Omskiy-141 — UGZK — position and weather

sailwx.info

Track history (hours):
 
Tides and Currents Weather Stations Pressure Air Temp Water Temp Dewpoint Dewpoint Depression Visibility Wind Speed Wind Dir Waves Ship Positions

Omskiy-141

Last reported at 2017-Sep-11 03:58 UTC. Time now 2017-Sep-23 11:22 UTC.
Position N 59°47' E 030°44'.
Warning: this ship's position is 12 days out of date.

Length 108 m; draft 3.3 m.

Type: Cargo ship. MMSI: 273310600.

Date/timePositionNaut miles runAvg speedWind from/ knotsBaromVisibWave heightAir tempDewpointWater temp
2017-Sep-11 03:58N 59°47' E 030°44'3 3.9
2017-Sep-11 03:15N 59°47' E 030°39'1 4.4
2017-Sep-11 02:59N 59°48' E 030°37'3 5.1
2017-Sep-11 02:28N 59°50' E 030°34'2 4.7
2017-Sep-11 02:00N 59°51' E 030°30'2 4.6
2017-Sep-11 01:30N 59°53' E 030°27'2 3.9
2017-Sep-11 01:00N 59°54' E 030°25'2 3.2
2017-Sep-11 00:30N 59°56' E 030°24'0 0.0
2017-Sep-11 00:00N 59°56' E 030°24'1 2.4
2017-Sep-10 23:30N 59°57' E 030°24'2 4.8
2017-Sep-10 23:00N 59°57' E 030°19'3 5.2
2017-Sep-10 22:30N 59°55' E 030°15'0 0.6
2017-Sep-10 22:00N 59°55' E 030°15'0 0.0
2017-Sep-10 21:30N 59°55' E 030°15'0 0.0
2017-Sep-10 21:00N 59°55' E 030°15'0 0.0
2017-Sep-10 20:30N 59°55' E 030°15'0 0.0
2017-Sep-10 20:00N 59°55' E 030°15'0 0.0
2017-Sep-10 19:30N 59°55' E 030°15'0 0.0
2017-Sep-10 19:00N 59°55' E 030°15'0 0.0
2017-Sep-10 18:30N 59°55' E 030°15'0 0.0
2017-Sep-10 18:00N 59°55' E 030°15'0 0.0
2017-Sep-10 17:30N 59°55' E 030°15'0 0.0
2017-Sep-10 17:00N 59°55' E 030°15'0 0.0
2017-Sep-10 16:30N 59°55' E 030°15'0 0.0
2017-Sep-10 16:00N 59°55' E 030°15'0 0.0
2017-Sep-10 15:31N 59°55' E 030°15'0 0.0
2017-Sep-10 15:00N 59°55' E 030°15'0 0.0
2017-Sep-10 14:00N 59°55' E 030°15'0 0.0
2017-Sep-10 13:31N 59°55' E 030°15'0 0.0
2017-Sep-10 12:54N 59°55' E 030°15'0 0.0
2017-Sep-10 12:30N 59°55' E 030°15'0 0.0
2017-Sep-10 12:00N 59°55' E 030°15'0 0.0
2017-Sep-10 11:30N 59°55' E 030°15'0 0.0
2017-Sep-10 11:01N 59°55' E 030°15'0 0.0
2017-Sep-10 10:30N 59°55' E 030°15'0 0.0
2017-Sep-10 10:00N 59°55' E 030°15'0 0.0
2017-Sep-10 09:30N 59°55' E 030°15'0 0.0
2017-Sep-10 09:00N 59°55' E 030°15'0 0.0
2017-Sep-10 08:30N 59°55' E 030°15'0 0.0
2017-Sep-10 08:00N 59°55' E 030°15'0 0.0
2017-Sep-10 07:30N 59°55' E 030°15'0 0.0
2017-Sep-10 07:00N 59°55' E 030°15'0 0.0
2017-Sep-10 06:30N 59°55' E 030°15'0 0.0
2017-Sep-10 06:00N 59°55' E 030°15'0 0.0
2017-Sep-10 05:30N 59°55' E 030°15'0 0.0
2017-Sep-10 05:00N 59°55' E 030°15'0 0.0
2017-Sep-10 04:30N 59°55' E 030°15'2 3.3
2017-Sep-10 04:00N 59°55' E 030°12'3 6.3
2017-Sep-10 03:30N 59°57' E 030°06'4 7.2
2017-Sep-10 03:00N 59°56' E 029°59'4 7.5
2017-Sep-10 02:30N 59°57' E 029°52'4 7.4
2017-Sep-10 02:00N 59°59' E 029°46'14 0.7
2017-Sep-09 07:01N 60°01' E 029°18'0 3.1
2017-Sep-09 07:00N 60°01' E 029°18'3 5.6
2017-Sep-09 06:24N 60°02' E 029°12'3 7.6
2017-Sep-09 05:58N 60°02' E 029°05'4 8.0
2017-Sep-09 05:27N 60°02' E 028°57'4 7.8
2017-Sep-09 04:59N 60°02' E 028°49'4 7.8
2017-Sep-09 04:30N 60°02' E 028°42'4 8.0
2017-Sep-09 04:00N 60°02' E 028°34'4 8.0
2017-Sep-09 03:30N 60°03' E 028°26'4 7.6
2017-Sep-09 03:00N 60°05' E 028°20'4 7.7
2017-Sep-09 02:30N 60°07' E 028°14'4 8.0
2017-Sep-09 02:00N 60°08' E 028°06'4 8.2
2017-Sep-09 01:30N 60°09' E 027°58'4 8.1
2017-Sep-09 01:00N 60°10' E 027°50'4 7.8
2017-Sep-09 00:30N 60°10' E 027°42'4 8.6
2017-Sep-09 00:01N 60°07' E 027°35'4 8.5
2017-Sep-08 23:30N 60°05' E 027°28'4 8.6
2017-Sep-08 23:00N 60°03' E 027°20'4 8.6
2017-Sep-08 22:30N 60°01' E 027°13'4 8.4
2017-Sep-08 22:00N 59°59' E 027°06'4 7.9
2017-Sep-08 21:30N 59°58' E 026°58'4 8.3
2017-Sep-08 21:00N 59°59' E 026°50'4 8.3
2017-Sep-08 20:30N 59°59' E 026°41'4 8.1
2017-Sep-08 20:00N 59°58' E 026°34'4 8.3
2017-Sep-08 19:30N 59°57' E 026°26'4 8.1
2017-Sep-08 19:00N 59°56' E 026°18'37 7.8
2017-Sep-08 14:18N 59°47' E 025°07'3 8.4
2017-Sep-08 13:53N 59°46' E 024°60'3 8.4
2017-Sep-08 13:30N 59°46' E 024°54'4 8.4
2017-Sep-08 13:00N 59°45' E 024°46'4 8.1
2017-Sep-08 12:30N 59°44' E 024°38'4 8.1
2017-Sep-08 12:00N 59°43' E 024°30'4 7.9
2017-Sep-08 11:30N 59°42' E 024°22'27 8.3
2017-Sep-08 08:19N 59°34' E 023°32'3 8.4
2017-Sep-08 08:00N 59°34' E 023°27'  
2017-Sep-03 01:11N 54°41' E 019°47'2 8.8
2017-Sep-03 00:56N 54°41' E 019°43'4 8.3
2017-Sep-03 00:30N 54°43' E 019°38'4 8.1
2017-Sep-02 23:59N 54°48' E 019°37'4 8.4
2017-Sep-02 23:28N 54°52' E 019°37'  
Track history (hours):
 
Tides and Currents Weather Stations Pressure Air Temp Water Temp Dewpoint Dewpoint Depression Visibility Wind Speed Wind Dir Waves Ship Positions

Omskiy-141

Last reported at 2017-Sep-11 03:58 UTC. Time now 2017-Sep-23 11:22 UTC.
Position N 59°47' E 030°44'.
Warning: this ship's position is 12 days out of date.

Length 108 m; draft 3.3 m.

Type: Cargo ship. MMSI: 273310600.

Date/timePositionNaut miles runAvg speedWind from/ knotsBaromVisibWave heightAir tempDewpointWater temp
2017-Sep-11 03:58N 59°47' E 030°44'3 3.9
2017-Sep-11 03:15N 59°47' E 030°39'1 4.4
2017-Sep-11 02:59N 59°48' E 030°37'3 5.1
2017-Sep-11 02:28N 59°50' E 030°34'2 4.7
2017-Sep-11 02:00N 59°51' E 030°30'2 4.6
2017-Sep-11 01:30N 59°53' E 030°27'2 3.9
2017-Sep-11 01:00N 59°54' E 030°25'2 3.2
2017-Sep-11 00:30N 59°56' E 030°24'0 0.0
2017-Sep-11 00:00N 59°56' E 030°24'1 2.4
2017-Sep-10 23:30N 59°57' E 030°24'2 4.8
2017-Sep-10 23:00N 59°57' E 030°19'3 5.2
2017-Sep-10 22:30N 59°55' E 030°15'0 0.6
2017-Sep-10 22:00N 59°55' E 030°15'0 0.0
2017-Sep-10 21:30N 59°55' E 030°15'0 0.0
2017-Sep-10 21:00N 59°55' E 030°15'0 0.0
2017-Sep-10 20:30N 59°55' E 030°15'0 0.0
2017-Sep-10 20:00N 59°55' E 030°15'0 0.0
2017-Sep-10 19:30N 59°55' E 030°15'0 0.0
2017-Sep-10 19:00N 59°55' E 030°15'0 0.0
2017-Sep-10 18:30N 59°55' E 030°15'0 0.0
2017-Sep-10 18:00N 59°55' E 030°15'0 0.0
2017-Sep-10 17:30N 59°55' E 030°15'0 0.0
2017-Sep-10 17:00N 59°55' E 030°15'0 0.0
2017-Sep-10 16:30N 59°55' E 030°15'0 0.0
2017-Sep-10 16:00N 59°55' E 030°15'0 0.0
2017-Sep-10 15:31N 59°55' E 030°15'0 0.0
2017-Sep-10 15:00N 59°55' E 030°15'0 0.0
2017-Sep-10 14:00N 59°55' E 030°15'0 0.0
2017-Sep-10 13:31N 59°55' E 030°15'0 0.0
2017-Sep-10 12:54N 59°55' E 030°15'0 0.0
2017-Sep-10 12:30N 59°55' E 030°15'0 0.0
2017-Sep-10 12:00N 59°55' E 030°15'0 0.0
2017-Sep-10 11:30N 59°55' E 030°15'0 0.0
2017-Sep-10 11:01N 59°55' E 030°15'0 0.0
2017-Sep-10 10:30N 59°55' E 030°15'0 0.0
2017-Sep-10 10:00N 59°55' E 030°15'0 0.0
2017-Sep-10 09:30N 59°55' E 030°15'0 0.0
2017-Sep-10 09:00N 59°55' E 030°15'0 0.0
2017-Sep-10 08:30N 59°55' E 030°15'0 0.0
2017-Sep-10 08:00N 59°55' E 030°15'0 0.0
2017-Sep-10 07:30N 59°55' E 030°15'0 0.0
2017-Sep-10 07:00N 59°55' E 030°15'0 0.0
2017-Sep-10 06:30N 59°55' E 030°15'0 0.0
2017-Sep-10 06:00N 59°55' E 030°15'0 0.0
2017-Sep-10 05:30N 59°55' E 030°15'0 0.0
2017-Sep-10 05:00N 59°55' E 030°15'0 0.0
2017-Sep-10 04:30N 59°55' E 030°15'2 3.3
2017-Sep-10 04:00N 59°55' E 030°12'3 6.3
2017-Sep-10 03:30N 59°57' E 030°06'4 7.2
2017-Sep-10 03:00N 59°56' E 029°59'4 7.5
2017-Sep-10 02:30N 59°57' E 029°52'4 7.4
2017-Sep-10 02:00N 59°59' E 029°46'14 0.7
2017-Sep-09 07:01N 60°01' E 029°18'0 3.1
2017-Sep-09 07:00N 60°01' E 029°18'3 5.6
2017-Sep-09 06:24N 60°02' E 029°12'3 7.6
2017-Sep-09 05:58N 60°02' E 029°05'4 8.0
2017-Sep-09 05:27N 60°02' E 028°57'4 7.8
2017-Sep-09 04:59N 60°02' E 028°49'4 7.8
2017-Sep-09 04:30N 60°02' E 028°42'4 8.0
2017-Sep-09 04:00N 60°02' E 028°34'4 8.0
2017-Sep-09 03:30N 60°03' E 028°26'4 7.6
2017-Sep-09 03:00N 60°05' E 028°20'4 7.7
2017-Sep-09 02:30N 60°07' E 028°14'4 8.0
2017-Sep-09 02:00N 60°08' E 028°06'4 8.2
2017-Sep-09 01:30N 60°09' E 027°58'4 8.1
2017-Sep-09 01:00N 60°10' E 027°50'4 7.8
2017-Sep-09 00:30N 60°10' E 027°42'4 8.6
2017-Sep-09 00:01N 60°07' E 027°35'4 8.5
2017-Sep-08 23:30N 60°05' E 027°28'4 8.6
2017-Sep-08 23:00N 60°03' E 027°20'4 8.6
2017-Sep-08 22:30N 60°01' E 027°13'4 8.4
2017-Sep-08 22:00N 59°59' E 027°06'4 7.9
2017-Sep-08 21:30N 59°58' E 026°58'4 8.3
2017-Sep-08 21:00N 59°59' E 026°50'4 8.3
2017-Sep-08 20:30N 59°59' E 026°41'4 8.1
2017-Sep-08 20:00N 59°58' E 026°34'4 8.3
2017-Sep-08 19:30N 59°57' E 026°26'4 8.1
2017-Sep-08 19:00N 59°56' E 026°18'37 7.8
2017-Sep-08 14:18N 59°47' E 025°07'3 8.4
2017-Sep-08 13:53N 59°46' E 024°60'3 8.4
2017-Sep-08 13:30N 59°46' E 024°54'4 8.4
2017-Sep-08 13:00N 59°45' E 024°46'4 8.1
2017-Sep-08 12:30N 59°44' E 024°38'4 8.1
2017-Sep-08 12:00N 59°43' E 024°30'4 7.9
2017-Sep-08 11:30N 59°42' E 024°22'27 8.3
2017-Sep-08 08:19N 59°34' E 023°32'3 8.4
2017-Sep-08 08:00N 59°34' E 023°27'  
2017-Sep-03 01:11N 54°41' E 019°47'2 8.8
2017-Sep-03 00:56N 54°41' E 019°43'4 8.3
2017-Sep-03 00:30N 54°43' E 019°38'4 8.1
2017-Sep-02 23:59N 54°48' E 019°37'4 8.4
2017-Sep-02 23:28N 54°52' E 019°37'  

Dump ship's entire track history